createdAt,value
2023-03-31T00:01:27.991Z,99937.69
2023-03-31T00:04:03.943Z,99941.53
2023-03-31T00:06:38.362Z,99935.75
2023-03-31T00:09:07.031Z,99930.97
2023-03-31T00:11:35.179Z,99931.16
2023-03-31T00:14:03.610Z,99928.66
2023-03-31T00:16:32.014Z,99932.44
2023-03-31T00:19:02.248Z,99919.88
2023-03-31T00:21:34.108Z,99925.84
2023-03-31T00:24:04.528Z,99928.16
2023-03-31T00:26:33.370Z,99920.69
2023-03-31T00:29:02.057Z,99909.66
2023-03-31T00:31:30.674Z,99902.63
2023-03-31T00:33:58.959Z,99892.72
2023-03-31T00:36:28.907Z,99890.44
2023-03-31T00:38:59.340Z,99891.47
2023-03-31T00:41:30.566Z,99886.19
2023-03-31T00:44:19.272Z,99891.00
2023-03-31T00:46:51.485Z,99886.50
2023-03-31T00:49:23.043Z,99890.22
2023-03-31T00:51:54.156Z,99890.69
2023-03-31T00:54:23.607Z,99889.16
2023-03-31T00:56:55.678Z,99890.97
2023-03-31T00:59:27.689Z,99882.25
2023-03-31T01:01:59.469Z,99880.00
2023-03-31T01:04:28.517Z,99881.38
2023-03-31T01:07:01.064Z,99873.31
2023-03-31T01:09:35.342Z,99872.03
2023-03-31T01:12:08.466Z,99870.78
2023-03-31T01:14:36.823Z,99863.41
2023-03-31T01:17:05.574Z,99863.03
2023-03-31T01:19:42.923Z,99857.75
2023-03-31T01:22:24.741Z,99857.63
2023-03-31T01:25:18.849Z,99860.78
2023-03-31T01:27:56.360Z,99860.38
2023-03-31T01:30:36.521Z,99855.47
2023-03-31T01:33:16.880Z,99848.47
2023-03-31T01:36:02.718Z,99856.53
2023-03-31T01:38:40.158Z,99852.06
2023-03-31T01:41:23.420Z,99849.06
2023-03-31T01:43:58.023Z,99840.00
2023-03-31T01:46:29.786Z,99838.84
2023-03-31T01:49:03.841Z,99836.59
2023-03-31T01:51:35.210Z,99836.03
2023-03-31T01:54:07.445Z,99844.28
2023-03-31T01:56:37.246Z,99837.16
2023-03-31T01:59:11.600Z,99844.22
2023-03-31T02:01:43.440Z,99843.31
2023-03-31T02:04:16.045Z,99832.91
2023-03-31T02:06:46.853Z,99824.88
2023-03-31T02:09:17.454Z,99829.13
2023-03-31T02:11:47.042Z,99815.75
2023-03-31T02:14:22.078Z,99813.88
2023-03-31T02:16:52.520Z,99813.31
2023-03-31T02:19:23.605Z,99806.50
2023-03-31T02:21:52.413Z,99797.84
2023-03-31T02:24:21.848Z,99795.00
2023-03-31T02:26:53.656Z,99795.00
2023-03-31T02:29:23.705Z,99799.88
2023-03-31T02:31:57.233Z,99793.19
2023-03-31T02:34:25.640Z,99791.59
2023-03-31T02:36:53.852Z,99789.47
2023-03-31T02:39:25.054Z,99789.78
2023-03-31T02:41:55.685Z,99782.78
2023-03-31T02:44:25.854Z,99780.34
2023-03-31T02:46:54.655Z,99781.81
2023-03-31T02:49:23.101Z,99774.00
2023-03-31T02:52:22.078Z,99775.22
2023-03-31T02:55:00.714Z,99770.06
2023-03-31T02:57:44.445Z,99773.41
2023-03-31T03:00:21.467Z,99762.19
2023-03-31T03:02:55.086Z,99763.16
2023-03-31T03:05:28.853Z,99759.34
2023-03-31T03:08:46.149Z,99755.09
2023-03-31T03:11:18.497Z,99744.28
2023-03-31T03:13:49.974Z,99740.41
2023-03-31T03:16:22.026Z,99737.13
2023-03-31T03:18:54.670Z,99743.41
2023-03-31T03:21:23.216Z,99736.50
2023-03-31T03:23:52.068Z,99740.34
2023-03-31T03:26:23.992Z,99728.66
2023-03-31T03:28:52.651Z,99727.16
2023-03-31T03:31:24.134Z,99720.59
2023-03-31T03:33:53.133Z,99716.28
2023-03-31T03:36:22.037Z,99716.34
2023-03-31T03:38:51.252Z,99715.41
2023-03-31T03:41:19.728Z,99716.69
2023-03-31T03:43:48.348Z,99715.53
2023-03-31T03:46:16.902Z,99715.41
2023-03-31T03:48:46.777Z,99720.69
2023-03-31T03:51:15.251Z,99724.41
2023-03-31T03:53:43.721Z,99719.09
2023-03-31T03:56:12.547Z,99712.34
2023-03-31T03:58:41.023Z,99714.69
2023-03-31T04:01:09.618Z,99717.88
2023-03-31T04:03:37.980Z,99716.44
2023-03-31T04:06:08.808Z,99712.56
2023-03-31T04:08:37.459Z,99708.50
2023-03-31T04:11:11.254Z,99703.41
2023-03-31T04:13:39.887Z,99703.97
2023-03-31T04:16:08.950Z,99701.84
2023-03-31T04:18:42.962Z,99696.00
2023-03-31T04:21:15.740Z,99689.78
2023-03-31T04:23:47.037Z,99684.78
2023-03-31T04:26:15.752Z,99688.28
2023-03-31T04:28:47.029Z,99690.84
2023-03-31T04:31:25.667Z,99692.00
2023-03-31T04:33:54.483Z,99680.03
2023-03-31T04:36:24.208Z,99676.84
2023-03-31T04:38:55.059Z,99676.94
2023-03-31T04:41:23.858Z,99679.56
2023-03-31T04:43:53.561Z,99671.41
2023-03-31T04:46:22.424Z,99674.19
2023-03-31T04:48:50.981Z,99669.66
2023-03-31T04:51:20.562Z,99669.31
2023-03-31T04:53:50.449Z,99662.97
2023-03-31T04:56:18.844Z,99664.59
2023-03-31T04:58:47.137Z,99665.31
2023-03-31T05:01:18.506Z,99669.66
2023-03-31T05:03:48.408Z,99665.41
2023-03-31T05:06:17.562Z,99662.78
2023-03-31T05:08:46.476Z,99665.97
2023-03-31T05:11:16.364Z,99664.38
2023-03-31T05:13:44.852Z,99661.72
2023-03-31T05:16:14.641Z,99654.06
2023-03-31T05:18:43.380Z,99646.22
2023-03-31T05:21:12.655Z,99649.53
2023-03-31T05:23:40.947Z,99642.94
2023-03-31T05:26:09.797Z,99643.91
2023-03-31T05:28:39.944Z,99643.03
2023-03-31T05:31:09.201Z,99646.66
2023-03-31T05:33:41.625Z,99640.75
2023-03-31T05:36:11.256Z,99642.19
2023-03-31T05:38:39.669Z,99640.53
2023-03-31T05:41:09.598Z,99637.75
2023-03-31T05:43:39.955Z,99636.69
2023-03-31T05:46:08.868Z,99633.31
2023-03-31T05:48:38.747Z,99637.56
2023-03-31T05:51:07.123Z,99628.03
2023-03-31T05:53:36.255Z,99628.56
2023-03-31T05:56:06.532Z,99623.03
2023-03-31T05:58:35.672Z,99623.13
2023-03-31T06:01:10.154Z,99619.84
2023-03-31T06:03:41.407Z,99617.00
2023-03-31T06:06:10.586Z,99618.69
2023-03-31T06:08:39.540Z,99612.53
2023-03-31T06:11:08.875Z,99619.63
2023-03-31T06:13:37.947Z,99615.63
2023-03-31T06:16:08.944Z,99614.47
2023-03-31T06:18:38.063Z,99612.53
2023-03-31T06:21:07.268Z,99607.44
2023-03-31T06:23:36.378Z,99606.59
2023-03-31T06:26:06.654Z,99613.41
2023-03-31T06:28:35.454Z,99601.41
2023-03-31T06:31:08.637Z,99601.28
2023-03-31T06:33:37.416Z,99602.91
2023-03-31T06:36:07.122Z,99602.13
2023-03-31T06:38:36.211Z,99601.63
2023-03-31T06:41:04.936Z,99602.25
2023-03-31T06:43:33.770Z,99600.97
2023-03-31T06:46:02.228Z,99599.63
2023-03-31T06:48:34.699Z,99600.53
2023-03-31T06:51:04.057Z,99603.19
2023-03-31T06:53:32.510Z,99602.47
2023-03-31T06:56:01.165Z,99598.31
2023-03-31T06:58:31.427Z,99596.19
2023-03-31T07:01:00.397Z,99602.13
2023-03-31T07:03:29.819Z,99601.06
2023-03-31T07:05:59.793Z,99601.09
2023-03-31T07:08:28.497Z,99589.59
2023-03-31T07:10:58.054Z,99588.66
2023-03-31T07:13:26.891Z,99589.41
2023-03-31T07:15:55.754Z,99586.88
2023-03-31T07:18:34.475Z,99577.94
2023-03-31T07:21:09.057Z,99578.34
2023-03-31T07:23:38.799Z,99574.63
2023-03-31T07:26:07.199Z,99579.00
2023-03-31T07:28:35.906Z,99584.69
2023-03-31T07:31:04.408Z,99578.47
2023-03-31T07:33:32.994Z,99576.31
2023-03-31T07:36:12.839Z,99576.66
2023-03-31T07:38:45.880Z,99574.50
2023-03-31T07:41:15.074Z,99573.66
2023-03-31T07:43:43.485Z,99582.78
2023-03-31T07:46:16.111Z,99567.19
2023-03-31T07:48:50.049Z,99578.66
2023-03-31T07:51:23.574Z,99579.28
2023-03-31T07:53:55.571Z,99577.38
2023-03-31T07:56:25.408Z,99573.44
2023-03-31T07:58:57.369Z,99564.00
2023-03-31T08:01:29.213Z,99563.34
2023-03-31T08:03:59.263Z,99548.50
2023-03-31T08:06:29.412Z,99549.25
2023-03-31T08:09:00.049Z,99552.41
2023-03-31T08:11:28.500Z,99555.66
2023-03-31T08:13:56.911Z,99555.78
2023-03-31T08:16:25.576Z,99546.75
2023-03-31T08:18:54.529Z,99540.25
2023-03-31T08:21:24.547Z,99543.69
2023-03-31T08:23:54.957Z,99540.63
2023-03-31T08:26:25.951Z,99533.88
2023-03-31T08:28:54.666Z,99542.91
2023-03-31T08:31:26.783Z,99536.19
2023-03-31T08:33:55.864Z,99535.75
2023-03-31T08:36:24.469Z,99534.28
2023-03-31T08:38:54.345Z,99529.81
2023-03-31T08:41:29.404Z,99527.63
2023-03-31T08:43:59.349Z,99532.69
2023-03-31T08:46:29.841Z,99528.47
2023-03-31T08:49:01.359Z,99525.56
2023-03-31T08:51:31.021Z,99517.25
2023-03-31T08:54:03.727Z,99515.19
2023-03-31T08:56:39.537Z,99517.00
2023-03-31T08:59:08.756Z,99519.16
2023-03-31T09:01:54.820Z,99519.69
2023-03-31T09:04:30.360Z,99510.91
2023-03-31T09:07:02.742Z,99504.41
2023-03-31T09:09:35.482Z,99507.91
2023-03-31T09:12:08.784Z,99502.16
2023-03-31T09:14:39.675Z,99506.66
2023-03-31T09:17:17.460Z,99500.84
2023-03-31T09:19:48.358Z,99489.53
2023-03-31T09:22:19.483Z,99492.19
2023-03-31T09:24:53.411Z,99496.94
2023-03-31T09:27:25.965Z,99491.38
2023-03-31T09:29:56.963Z,99484.13
2023-03-31T09:32:26.947Z,99491.13
2023-03-31T09:34:57.742Z,99489.44
2023-03-31T09:37:27.787Z,99480.16
2023-03-31T09:39:56.292Z,99488.13
2023-03-31T09:42:26.134Z,99476.03
2023-03-31T09:44:56.077Z,99473.66
2023-03-31T09:47:30.630Z,99476.91
2023-03-31T09:49:59.339Z,99481.63
2023-03-31T09:52:30.988Z,99480.88
2023-03-31T09:55:01.184Z,99476.31
2023-03-31T09:57:33.833Z,99481.88
2023-03-31T10:00:13.940Z,99475.47
2023-03-31T10:02:45.871Z,99475.13
2023-03-31T10:05:23.872Z,99475.84
2023-03-31T10:07:52.369Z,99469.44
2023-03-31T10:10:26.892Z,99468.25
2023-03-31T10:12:59.455Z,99464.00
2023-03-31T10:15:28.945Z,99465.47
2023-03-31T10:17:59.944Z,99464.59
2023-03-31T10:20:35.200Z,99459.19
2023-03-31T10:23:08.126Z,99469.78
2023-03-31T10:25:37.120Z,99450.22
2023-03-31T10:28:06.985Z,99463.63
2023-03-31T10:30:38.264Z,99455.50
2023-03-31T10:33:18.987Z,99451.38
2023-03-31T10:35:55.877Z,99448.69
2023-03-31T10:38:26.773Z,99446.97
2023-03-31T10:40:57.021Z,99442.84
2023-03-31T10:43:30.371Z,99440.34
2023-03-31T10:46:00.206Z,99442.09
2023-03-31T10:48:29.420Z,99445.22
2023-03-31T10:51:01.368Z,99441.56
2023-03-31T10:53:29.802Z,99435.78
2023-03-31T10:56:08.102Z,99439.13
2023-03-31T10:58:49.324Z,99427.34
2023-03-31T11:01:32.517Z,99440.16
2023-03-31T11:04:14.503Z,99429.44
2023-03-31T11:06:51.508Z,99428.81
2023-03-31T11:09:31.143Z,99423.56
2023-03-31T11:12:03.537Z,99427.78
2023-03-31T11:14:41.720Z,99422.81
2023-03-31T11:17:18.174Z,99416.66
2023-03-31T11:19:52.966Z,99423.44
2023-03-31T11:22:27.374Z,99417.31
2023-03-31T11:25:07.413Z,99420.59
2023-03-31T11:27:43.047Z,99424.81
2023-03-31T11:30:20.588Z,99421.06
2023-03-31T11:32:57.592Z,99408.69
2023-03-31T11:35:37.077Z,99405.19
2023-03-31T11:38:20.384Z,99395.81
2023-03-31T11:40:58.707Z,99398.28
2023-03-31T11:43:30.912Z,99394.22
2023-03-31T11:46:04.504Z,99392.56
2023-03-31T11:48:37.650Z,99394.00
2023-03-31T11:51:08.774Z,99396.00
2023-03-31T11:53:38.788Z,99389.91
2023-03-31T11:56:08.446Z,99392.88
2023-03-31T11:58:38.574Z,99385.63
2023-03-31T12:01:15.949Z,99389.50
2023-03-31T12:03:49.821Z,99392.09
2023-03-31T12:06:20.168Z,99384.13
2023-03-31T12:08:52.169Z,99384.28
2023-03-31T12:11:23.546Z,99386.38
2023-03-31T12:13:54.032Z,99381.19
2023-03-31T12:16:26.747Z,99377.00
2023-03-31T12:19:00.136Z,99372.84
2023-03-31T12:21:29.371Z,99379.56
2023-03-31T12:23:57.690Z,99379.06
2023-03-31T12:26:34.033Z,99380.06
2023-03-31T12:29:05.374Z,99370.56
2023-03-31T12:31:38.089Z,99361.63
2023-03-31T12:34:08.880Z,99357.50
2023-03-31T12:36:48.713Z,99352.91
2023-03-31T12:39:27.475Z,99350.38
2023-03-31T12:42:08.392Z,99345.03
2023-03-31T12:44:40.649Z,99339.16
2023-03-31T12:47:28.163Z,99330.19
2023-03-31T12:50:06.678Z,99335.38
2023-03-31T12:52:40.992Z,99339.59
2023-03-31T12:55:23.111Z,99340.56
2023-03-31T12:57:51.427Z,99339.19
2023-03-31T13:00:26.923Z,99334.53
2023-03-31T13:03:10.250Z,99329.59
2023-03-31T13:05:47.469Z,99334.09
2023-03-31T13:08:30.614Z,99336.03
2023-03-31T13:11:00.064Z,99334.88
2023-03-31T13:13:28.474Z,99342.72
2023-03-31T13:15:58.349Z,99340.06
2023-03-31T13:18:26.696Z,99341.88
2023-03-31T13:23:35.091Z,99340.44
2023-03-31T13:26:03.642Z,99343.94
2023-03-31T13:28:40.473Z,99335.94
2023-03-31T13:31:09.534Z,99335.50
2023-03-31T13:33:41.298Z,99335.78
2023-03-31T13:36:26.427Z,99344.06
2023-03-31T13:39:01.385Z,99334.78
2023-03-31T13:41:37.908Z,99342.63
2023-03-31T13:44:24.676Z,99341.66
2023-03-31T13:46:58.267Z,99348.53
2023-03-31T13:49:48.897Z,99342.88
2023-03-31T13:52:21.910Z,99351.88
2023-03-31T13:55:08.478Z,99346.28
2023-03-31T13:57:55.848Z,99347.94
2023-03-31T14:00:36.632Z,99346.38
2023-03-31T14:03:15.390Z,99347.16
2023-03-31T14:05:44.911Z,99345.88
2023-03-31T14:08:20.252Z,99338.88
2023-03-31T14:10:50.751Z,99341.53
2023-03-31T14:13:20.028Z,99338.44
2023-03-31T14:15:50.225Z,99342.19
2023-03-31T14:18:23.394Z,99340.38
2023-03-31T14:20:57.931Z,99346.66
2023-03-31T14:23:35.351Z,99343.88
2023-03-31T14:26:07.197Z,99338.94
2023-03-31T14:28:47.017Z,99333.50
2023-03-31T14:31:21.850Z,99339.66
2023-03-31T14:33:59.136Z,99330.44
2023-03-31T14:36:33.009Z,99340.81
2023-03-31T14:39:06.302Z,99334.06
2023-03-31T14:41:36.336Z,99332.13
2023-03-31T14:44:06.559Z,99335.63
2023-03-31T14:46:39.146Z,99335.22
2023-03-31T14:49:20.077Z,99328.94
2023-03-31T14:51:49.077Z,99334.97
2023-03-31T14:54:20.227Z,99334.72
2023-03-31T14:56:50.859Z,99336.72
2023-03-31T14:59:22.250Z,99331.69
2023-03-31T15:01:51.761Z,99332.66
2023-03-31T15:04:28.772Z,99328.25
2023-03-31T15:07:07.893Z,99332.84
2023-03-31T15:09:37.682Z,99326.16
2023-03-31T15:12:09.010Z,99333.19
2023-03-31T15:14:41.771Z,99330.78
2023-03-31T15:17:18.069Z,99325.31
2023-03-31T15:19:46.347Z,99320.13
2023-03-31T15:22:16.617Z,99324.63
2023-03-31T15:24:46.819Z,99317.78
2023-03-31T15:27:20.533Z,99324.38
2023-03-31T15:29:53.416Z,99321.72
2023-03-31T15:32:24.689Z,99322.84
2023-03-31T15:34:53.549Z,99318.19
2023-03-31T15:37:23.966Z,99331.63
2023-03-31T15:39:57.132Z,99313.97
2023-03-31T15:42:26.009Z,99318.03
2023-03-31T15:44:55.926Z,99309.91
2023-03-31T15:47:26.642Z,99316.06
2023-03-31T15:49:56.520Z,99301.81
2023-03-31T15:52:28.663Z,99305.69
2023-03-31T15:54:58.782Z,99303.47
2023-03-31T15:57:32.934Z,99306.13
2023-03-31T16:00:01.467Z,99310.25
2023-03-31T16:02:39.023Z,99315.69
2023-03-31T16:05:10.930Z,99306.22
2023-03-31T16:07:44.834Z,99303.97
2023-03-31T16:10:19.184Z,99310.16
2023-03-31T16:12:51.704Z,99317.41
2023-03-31T16:15:23.793Z,99309.31
2023-03-31T16:17:55.378Z,99309.94
2023-03-31T16:20:26.259Z,99313.72
2023-03-31T16:22:56.424Z,99311.47
2023-03-31T16:25:27.547Z,99315.09
2023-03-31T16:27:57.721Z,99315.09
2023-03-31T16:30:34.485Z,99306.41
2023-03-31T16:33:04.421Z,99309.59
2023-03-31T16:35:35.640Z,99312.25
2023-03-31T16:38:04.178Z,99312.53
2023-03-31T16:40:37.326Z,99307.44
2023-03-31T16:43:13.196Z,99311.09
2023-03-31T16:45:42.524Z,99309.66
2023-03-31T16:48:16.454Z,99308.81
2023-03-31T16:50:46.301Z,99298.72
2023-03-31T16:53:14.909Z,99309.75
2023-03-31T16:55:44.875Z,99310.69
2023-03-31T16:58:13.637Z,99314.63
2023-03-31T17:00:42.878Z,99321.16
2023-03-31T17:03:12.024Z,99318.63
2023-03-31T17:05:41.621Z,99319.34
2023-03-31T17:08:10.460Z,99325.66
2023-03-31T17:10:39.195Z,99317.78
2023-03-31T17:13:10.108Z,99331.47
2023-03-31T17:15:39.062Z,99326.28
2023-03-31T17:18:07.541Z,99326.53
2023-03-31T17:20:36.316Z,99328.69
2023-03-31T17:23:04.844Z,99330.63
2023-03-31T17:25:33.182Z,99328.22
2023-03-31T17:28:02.189Z,99330.63
2023-03-31T17:30:32.931Z,99326.28
2023-03-31T17:33:01.655Z,99329.06
2023-03-31T17:35:31.005Z,99333.56
2023-03-31T17:37:59.897Z,99342.75
2023-03-31T17:40:28.215Z,99339.97
2023-03-31T17:42:56.635Z,99340.09
2023-03-31T17:45:25.487Z,99343.03
2023-03-31T17:47:55.826Z,99339.38
2023-03-31T17:50:24.460Z,99342.03
2023-03-31T17:52:53.020Z,99341.19
2023-03-31T17:55:21.346Z,99345.78
2023-03-31T17:57:49.554Z,99346.66
2023-03-31T18:00:18.019Z,99342.28
2023-03-31T18:02:46.529Z,99348.44
2023-03-31T18:05:18.327Z,99343.28
2023-03-31T18:07:47.591Z,99340.63
2023-03-31T18:10:15.817Z,99333.75
2023-03-31T18:12:44.870Z,99333.75
2023-03-31T18:15:13.367Z,99324.06
2023-03-31T18:17:43.456Z,99334.84
2023-03-31T18:20:12.456Z,99332.88
2023-03-31T18:22:42.331Z,99334.84
2023-03-31T18:25:11.304Z,99335.78
2023-03-31T18:27:39.652Z,99339.44
2023-03-31T18:30:08.736Z,99345.03
2023-03-31T18:32:37.240Z,99340.66
2023-03-31T18:35:06.015Z,99344.28
2023-03-31T18:37:35.359Z,99342.59
2023-03-31T18:40:05.212Z,99340.06
2023-03-31T18:42:33.693Z,99343.94
2023-03-31T18:45:01.918Z,99346.50
2023-03-31T18:47:30.400Z,99338.38
2023-03-31T18:49:58.716Z,99348.06
2023-03-31T18:52:27.364Z,99342.75
2023-03-31T18:54:56.151Z,99345.41
2023-03-31T18:57:26.261Z,99344.53
2023-03-31T18:59:54.692Z,99350.09
2023-03-31T19:02:23.250Z,99342.84
2023-03-31T19:04:51.755Z,99346.50
2023-03-31T19:07:19.993Z,99338.63
2023-03-31T19:09:49.245Z,99339.34
2023-03-31T19:12:18.175Z,99336.09
2023-03-31T19:14:48.578Z,99336.09
2023-03-31T19:17:18.042Z,99334.16
2023-03-31T19:19:47.464Z,99331.88
2023-03-31T19:22:15.816Z,99332.84
2023-03-31T19:24:45.309Z,99331.28
2023-03-31T19:27:14.138Z,99334.94
2023-03-31T19:29:42.380Z,99342.03
2023-03-31T19:32:12.218Z,99337.81
2023-03-31T19:34:41.210Z,99337.09
2023-03-31T19:37:09.851Z,99333.84
2023-03-31T19:39:38.960Z,99336.13
2023-03-31T19:42:07.468Z,99333.47
2023-03-31T19:44:35.711Z,99335.31
2023-03-31T19:47:04.136Z,99335.16
2023-03-31T19:49:33.925Z,99330.91
2023-03-31T19:52:02.530Z,99324.41
2023-03-31T19:54:30.969Z,99332.66
2023-03-31T19:56:59.320Z,99329.25
2023-03-31T19:59:27.750Z,99335.63
2023-03-31T20:01:58.067Z,99329.13
2023-03-31T20:04:26.948Z,99327.19
2023-03-31T20:06:56.798Z,99335.16
2023-03-31T20:09:26.667Z,99333.47
2023-03-31T20:11:55.718Z,99329.00
2023-03-31T20:14:24.641Z,99329.00
2023-03-31T20:16:53.086Z,99326.47
2023-03-31T20:19:22.952Z,99326.47
2023-03-31T20:21:54.302Z,99317.63
2023-03-31T20:24:24.252Z,99323.94
2023-03-31T20:26:53.131Z,99325.75
2023-03-31T20:29:22.325Z,99329.25
2023-03-31T20:31:50.937Z,99319.72
2023-03-31T20:34:22.887Z,99324.19
2023-03-31T20:36:52.892Z,99317.78
2023-03-31T20:39:21.904Z,99316.09
2023-03-31T20:41:52.380Z,99310.19
2023-03-31T20:44:22.167Z,99316.34
2023-03-31T20:46:50.639Z,99314.41
2023-03-31T20:49:19.765Z,99312.13
2023-03-31T20:51:49.369Z,99316.47
2023-03-31T20:54:17.827Z,99310.31
2023-03-31T20:56:49.699Z,99304.25
2023-03-31T20:59:20.568Z,99304.53
2023-03-31T21:01:50.408Z,99303.78
2023-03-31T21:04:22.468Z,99306.59
2023-03-31T21:06:51.826Z,99301.88
2023-03-31T21:09:20.222Z,99300.66
2023-03-31T21:11:48.526Z,99301.41
2023-03-31T21:14:17.678Z,99295.97
2023-03-31T21:16:47.618Z,99303.31
2023-03-31T21:19:19.114Z,99299.94
2023-03-31T21:21:47.516Z,99303.47
2023-03-31T21:24:16.194Z,99307.09
2023-03-31T21:26:44.690Z,99301.88
2023-03-31T21:29:14.699Z,99300.19
2023-03-31T21:31:45.134Z,99301.88
2023-03-31T21:34:15.134Z,99297.81
2023-03-31T21:36:43.545Z,99304.69
2023-03-31T21:39:12.112Z,99298.53
2023-03-31T21:41:40.819Z,99302.13
2023-03-31T21:44:10.197Z,99301.88
2023-03-31T21:46:39.874Z,99310.84
2023-03-31T21:49:08.411Z,99308.06
2023-03-31T21:51:41.694Z,99305.53
2023-03-31T21:54:10.307Z,99303.69
2023-03-31T21:56:38.658Z,99310.84
2023-03-31T21:59:07.593Z,99311.66
2023-03-31T22:01:36.031Z,99304.06
2023-03-31T22:04:04.577Z,99301.66
2023-03-31T22:06:34.706Z,99301.66
2023-03-31T22:09:05.036Z,99300.09
2023-03-31T22:11:33.295Z,99298.75
2023-03-31T22:14:01.903Z,99299.00
2023-03-31T22:16:30.468Z,99304.31
2023-03-31T22:19:00.334Z,99305.41
2023-03-31T22:21:43.961Z,99298.44
2023-03-31T22:24:14.698Z,99302.91
2023-03-31T22:26:43.303Z,99306.97
2023-03-31T22:29:14.972Z,99314.97
2023-03-31T22:31:43.609Z,99308.53
2023-03-31T22:34:12.363Z,99315.31
2023-03-31T22:36:41.049Z,99317.25
2023-03-31T22:39:10.544Z,99316.41
2023-03-31T22:41:43.988Z,99305.94
2023-03-31T22:44:13.025Z,99320.06
2023-03-31T22:46:41.417Z,99316.31
2023-03-31T22:49:11.039Z,99312.91
2023-03-31T22:51:40.840Z,99316.41
2023-03-31T22:54:09.661Z,99316.41
2023-03-31T22:56:38.209Z,99321.00
2023-03-31T22:59:08.649Z,99309.53
2023-03-31T23:01:37.381Z,99304.38
2023-03-31T23:04:05.875Z,99319.31
2023-03-31T23:06:36.176Z,99310.16
2023-03-31T23:09:04.669Z,99301.56
2023-03-31T23:11:33.087Z,99314.00
2023-03-31T23:14:03.786Z,99310.50
2023-03-31T23:16:34.046Z,99314.13
2023-03-31T23:19:02.865Z,99320.16
2023-03-31T23:21:31.744Z,99324.75
2023-03-31T23:24:02.396Z,99320.31
2023-03-31T23:26:32.114Z,99324.63
2023-03-31T23:29:00.979Z,99316.78
2023-03-31T23:31:30.389Z,99323.81
2023-03-31T23:34:01.172Z,99319.59
2023-03-31T23:36:29.705Z,99317.75
2023-03-31T23:38:58.802Z,99317.66
2023-03-31T23:41:27.515Z,99320.41
2023-03-31T23:43:57.945Z,99316.91
2023-03-31T23:46:26.946Z,99307.25
2023-03-31T23:48:56.003Z,99316.19
2023-03-31T23:51:25.760Z,99310.88
2023-03-31T23:53:53.996Z,99315.47
2023-03-31T23:56:22.543Z,99318.97
2023-03-31T23:58:50.867Z,99312.81
